Poularies, Canada
Current Conditions -  °F | °C
As of 4:00 PM on Sunday 23 Nov 2014 (Local Time) from CYUY Reporting Station
Haze Haze  
Wind Chill: 31°   Ceiling: 400
Heat Index: 37°   Visibility: 3mi
Dew Point: 36°   Wind: 9mph
Humidity: 93%   Direction: 140°SE
Pressure: 29.71"   Gusts: NA
Location:  48.67°N, 78.98°W
Report Text: CYUY 232100Z 14008KT 3SM BR OVC004 03/02 A2971 RMK SF8 PRESFR SLP076
Loading
Personal Weather Stations






























Interactive Weather Map New forecast layout! Learn more

10-Day Weather Forecast

Advertisements
Track Severe Weather on mobile